sensor_id;sensor_type;location;lat;lon;timestamp;temperature;humidity
4615;DHT22;2320;51.362;6.946;2022-09-16T00:02:08;14.50;99.90
4615;DHT22;2320;51.362;6.946;2022-09-16T00:04:33;14.50;99.90
4615;DHT22;2320;51.362;6.946;2022-09-16T00:06:59;14.40;99.90
4615;DHT22;2320;51.362;6.946;2022-09-16T00:09:24;14.30;99.90
4615;DHT22;2320;51.362;6.946;2022-09-16T00:11:50;14.40;99.90
4615;DHT22;2320;51.362;6.946;2022-09-16T00:14:15;14.40;99.90
4615;DHT22;2320;51.362;6.946;2022-09-16T00:16:41;14.50;99.90
4615;DHT22;2320;51.362;6.946;2022-09-16T00:19:07;14.40;99.90
4615;DHT22;2320;51.362;6.946;2022-09-16T00:21:32;14.30;99.90
4615;DHT22;2320;51.362;6.946;2022-09-16T00:23:58;14.40;99.90
4615;DHT22;2320;51.362;6.946;2022-09-16T00:26:23;14.30;99.90
4615;DHT22;2320;51.362;6.946;2022-09-16T00:28:50;14.30;99.90
4615;DHT22;2320;51.362;6.946;2022-09-16T00:31:15;14.50;99.90
4615;DHT22;2320;51.362;6.946;2022-09-16T00:33:41;14.40;99.90
4615;DHT22;2320;51.362;6.946;2022-09-16T00:36:10;14.30;99.90
4615;DHT22;2320;51.362;6.946;2022-09-16T00:38:36;14.20;99.90
4615;DHT22;2320;51.362;6.946;2022-09-16T00:41:02;14.30;99.90
4615;DHT22;2320;51.362;6.946;2022-09-16T00:43:27;14.40;99.90
4615;DHT22;2320;51.362;6.946;2022-09-16T00:45:58;14.30;99.90
4615;DHT22;2320;51.362;6.946;2022-09-16T00:48:25;14.40;99.90
4615;DHT22;2320;51.362;6.946;2022-09-16T00:51:09;14.30;99.90
4615;DHT22;2320;51.362;6.946;2022-09-16T00:53:46;14.40;99.90
4615;DHT22;2320;51.362;6.946;2022-09-16T00:56:13;14.40;99.90
4615;DHT22;2320;51.362;6.946;2022-09-16T00:58:43;14.50;99.90
4615;DHT22;2320;51.362;6.946;2022-09-16T01:01:09;14.60;99.90
4615;DHT22;2320;51.362;6.946;2022-09-16T01:03:48;14.50;99.90
4615;DHT22;2320;51.362;6.946;2022-09-16T01:06:15;14.30;99.90
4615;DHT22;2320;51.362;6.946;2022-09-16T01:08:42;14.40;99.90
4615;DHT22;2320;51.362;6.946;2022-09-16T01:11:09;14.50;99.90
4615;DHT22;2320;51.362;6.946;2022-09-16T01:13:34;14.40;99.90
4615;DHT22;2320;51.362;6.946;2022-09-16T01:21:24;14.70;99.90
4615;DHT22;2320;51.362;6.946;2022-09-16T01:23:57;14.70;99.90
4615;DHT22;2320;51.362;6.946;2022-09-16T01:32:05;14.40;99.90
4615;DHT22;2320;51.362;6.946;2022-09-16T01:37:05;14.50;99.90
4615;DHT22;2320;51.362;6.946;2022-09-16T01:40:15;14.50;99.90
4615;DHT22;2320;51.362;6.946;2022-09-16T01:42:38;14.40;99.90
4615;DHT22;2320;51.362;6.946;2022-09-16T01:45:10;14.50;99.90
4615;DHT22;2320;51.362;6.946;2022-09-16T01:47:50;14.50;99.90
4615;DHT22;2320;51.362;6.946;2022-09-16T01:52:59;14.40;99.90
4615;DHT22;2320;51.362;6.946;2022-09-16T02:00:33;14.20;99.90
4615;DHT22;2320;51.362;6.946;2022-09-16T02:03:01;14.10;99.90
4615;DHT22;2320;51.362;6.946;2022-09-16T02:05:31;14.10;99.90
4615;DHT22;2320;51.362;6.946;2022-09-16T02:08:00;14.10;99.90
4615;DHT22;2320;51.362;6.946;2022-09-16T02:10:27;14.10;99.90
4615;DHT22;2320;51.362;6.946;2022-09-16T02:13:02;14.10;99.90
4615;DHT22;2320;51.362;6.946;2022-09-16T02:15:28;14.10;99.90
4615;DHT22;2320;51.362;6.946;2022-09-16T02:18:05;14.10;99.90
4615;DHT22;2320;51.362;6.946;2022-09-16T02:20:34;14.20;99.90
4615;DHT22;2320;51.362;6.946;2022-09-16T02:23:05;14.30;99.90
4615;DHT22;2320;51.362;6.946;2022-09-16T02:25:34;14.10;99.90
4615;DHT22;2320;51.362;6.946;2022-09-16T02:28:00;14.10;99.90
4615;DHT22;2320;51.362;6.946;2022-09-16T02:30:26;14.20;99.90
4615;DHT22;2320;51.362;6.946;2022-09-16T02:32:56;14.20;99.90
4615;DHT22;2320;51.362;6.946;2022-09-16T02:35:23;14.20;99.90
4615;DHT22;2320;51.362;6.946;2022-09-16T02:37:51;14.10;99.90
4615;DHT22;2320;51.362;6.946;2022-09-16T02:40:28;14.00;99.90
4615;DHT22;2320;51.362;6.946;2022-09-16T02:42:56;14.00;99.90
4615;DHT22;2320;51.362;6.946;2022-09-16T02:45:22;14.00;99.90
4615;DHT22;2320;51.362;6.946;2022-09-16T02:53:03;14.10;99.90
4615;DHT22;2320;51.362;6.946;2022-09-16T02:58:13;13.90;99.90
4615;DHT22;2320;51.362;6.946;2022-09-16T03:00:40;14.00;99.90
4615;DHT22;2320;51.362;6.946;2022-09-16T03:03:07;13.90;99.90
4615;DHT22;2320;51.362;6.946;2022-09-16T03:05:33;14.10;99.90
4615;DHT22;2320;51.362;6.946;2022-09-16T03:07:59;14.10;99.90
4615;DHT22;2320;51.362;6.946;2022-09-16T03:10:28;14.00;99.90
4615;DHT22;2320;51.362;6.946;2022-09-16T03:13:08;14.10;99.90
4615;DHT22;2320;51.362;6.946;2022-09-16T03:23:05;14.00;99.90
4615;DHT22;2320;51.362;6.946;2022-09-16T03:26:17;14.00;99.90
4615;DHT22;2320;51.362;6.946;2022-09-16T03:28:24;13.90;99.90
4615;DHT22;2320;51.362;6.946;2022-09-16T03:31:02;13.90;99.90
4615;DHT22;2320;51.362;6.946;2022-09-16T03:36:14;13.90;99.90
4615;DHT22;2320;51.362;6.946;2022-09-16T03:38:40;13.80;99.90
4615;DHT22;2320;51.362;6.946;2022-09-16T03:41:07;13.90;99.90
4615;DHT22;2320;51.362;6.946;2022-09-16T03:43:33;13.80;99.90
4615;DHT22;2320;51.362;6.946;2022-09-16T03:45:58;13.90;99.90
4615;DHT22;2320;51.362;6.946;2022-09-16T03:48:24;13.80;99.90
4615;DHT22;2320;51.362;6.946;2022-09-16T03:50:49;13.90;99.90
4615;DHT22;2320;51.362;6.946;2022-09-16T03:53:15;13.90;99.90
4615;DHT22;2320;51.362;6.946;2022-09-16T03:55:40;13.80;99.90
4615;DHT22;2320;51.362;6.946;2022-09-16T03:58:06;13.90;99.90
4615;DHT22;2320;51.362;6.946;2022-09-16T04:00:31;13.80;99.90
4615;DHT22;2320;51.362;6.946;2022-09-16T04:02:57;13.70;99.90
4615;DHT22;2320;51.362;6.946;2022-09-16T04:05:23;13.80;99.90
4615;DHT22;2320;51.362;6.946;2022-09-16T04:07:49;13.80;99.90
4615;DHT22;2320;51.362;6.946;2022-09-16T04:10:14;13.90;99.90
4615;DHT22;2320;51.362;6.946;2022-09-16T04:12:40;13.80;99.90
4615;DHT22;2320;51.362;6.946;2022-09-16T04:15:05;13.80;99.90
4615;DHT22;2320;51.362;6.946;2022-09-16T04:17:31;13.80;99.90
4615;DHT22;2320;51.362;6.946;2022-09-16T04:19:57;13.80;99.90
4615;DHT22;2320;51.362;6.946;2022-09-16T04:22:22;13.80;99.90
4615;DHT22;2320;51.362;6.946;2022-09-16T04:24:47;13.80;99.90
4615;DHT22;2320;51.362;6.946;2022-09-16T04:27:13;13.70;99.90
4615;DHT22;2320;51.362;6.946;2022-09-16T04:29:38;13.60;99.90
4615;DHT22;2320;51.362;6.946;2022-09-16T04:32:04;13.60;99.90
4615;DHT22;2320;51.362;6.946;2022-09-16T04:34:29;13.60;99.90
4615;DHT22;2320;51.362;6.946;2022-09-16T04:36:57;13.60;99.90
4615;DHT22;2320;51.362;6.946;2022-09-16T04:39:22;13.60;99.90
4615;DHT22;2320;51.362;6.946;2022-09-16T04:41:48;13.70;99.90
4615;DHT22;2320;51.362;6.946;2022-09-16T04:44:13;13.80;99.90
4615;DHT22;2320;51.362;6.946;2022-09-16T04:46:39;13.80;99.90
4615;DHT22;2320;51.362;6.946;2022-09-16T04:49:05;13.80;99.90
4615;DHT22;2320;51.362;6.946;2022-09-16T04:51:30;13.90;99.90
4615;DHT22;2320;51.362;6.946;2022-09-16T04:53:57;13.80;99.90
4615;DHT22;2320;51.362;6.946;2022-09-16T04:56:24;13.60;99.90
4615;DHT22;2320;51.362;6.946;2022-09-16T04:58:50;13.70;99.90
4615;DHT22;2320;51.362;6.946;2022-09-16T05:01:17;13.80;99.90
4615;DHT22;2320;51.362;6.946;2022-09-16T05:03:44;13.70;99.90
4615;DHT22;2320;51.362;6.946;2022-09-16T05:06:14;13.70;99.90
4615;DHT22;2320;51.362;6.946;2022-09-16T05:08:39;13.70;99.90
4615;DHT22;2320;51.362;6.946;2022-09-16T05:11:06;13.70;99.90
4615;DHT22;2320;51.362;6.946;2022-09-16T05:13:31;13.50;99.90
4615;DHT22;2320;51.362;6.946;2022-09-16T05:16:04;13.50;99.90
4615;DHT22;2320;51.362;6.946;2022-09-16T05:18:30;13.60;99.90
4615;DHT22;2320;51.362;6.946;2022-09-16T05:20:56;13.70;99.90
4615;DHT22;2320;51.362;6.946;2022-09-16T05:23:22;13.70;99.90
4615;DHT22;2320;51.362;6.946;2022-09-16T05:25:48;13.60;99.90
4615;DHT22;2320;51.362;6.946;2022-09-16T05:28:13;13.70;99.90
4615;DHT22;2320;51.362;6.946;2022-09-16T05:30:38;13.70;99.90
4615;DHT22;2320;51.362;6.946;2022-09-16T05:33:04;13.70;99.90
4615;DHT22;2320;51.362;6.946;2022-09-16T05:35:30;13.70;99.90
4615;DHT22;2320;51.362;6.946;2022-09-16T05:37:55;13.70;99.90
4615;DHT22;2320;51.362;6.946;2022-09-16T05:40:21;13.80;99.90
4615;DHT22;2320;51.362;6.946;2022-09-16T05:42:47;13.80;99.90
4615;DHT22;2320;51.362;6.946;2022-09-16T05:45:13;13.90;99.90
4615;DHT22;2320;51.362;6.946;2022-09-16T05:47:38;13.90;99.90
4615;DHT22;2320;51.362;6.946;2022-09-16T05:50:04;13.90;99.90
4615;DHT22;2320;51.362;6.946;2022-09-16T05:52:29;14.10;99.90
4615;DHT22;2320;51.362;6.946;2022-09-16T05:54:55;14.30;99.90
4615;DHT22;2320;51.362;6.946;2022-09-16T05:57:20;14.40;99.90
4615;DHT22;2320;51.362;6.946;2022-09-16T05:59:46;14.50;99.90
4615;DHT22;2320;51.362;6.946;2022-09-16T06:02:11;14.50;99.90
4615;DHT22;2320;51.362;6.946;2022-09-16T06:04:37;14.50;99.90
4615;DHT22;2320;51.362;6.946;2022-09-16T06:07:02;14.60;99.90
4615;DHT22;2320;51.362;6.946;2022-09-16T06:09:29;14.40;99.90
4615;DHT22;2320;51.362;6.946;2022-09-16T06:11:55;14.40;99.90
4615;DHT22;2320;51.362;6.946;2022-09-16T06:14:20;14.40;99.90
4615;DHT22;2320;51.362;6.946;2022-09-16T06:16:47;14.40;99.90
4615;DHT22;2320;51.362;6.946;2022-09-16T06:19:14;14.50;99.90
4615;DHT22;2320;51.362;6.946;2022-09-16T06:21:40;14.60;99.90
4615;DHT22;2320;51.362;6.946;2022-09-16T06:24:05;14.70;99.90
4615;DHT22;2320;51.362;6.946;2022-09-16T06:26:35;14.70;99.90
4615;DHT22;2320;51.362;6.946;2022-09-16T06:29:01;14.70;99.90
4615;DHT22;2320;51.362;6.946;2022-09-16T06:31:27;14.80;99.90
4615;DHT22;2320;51.362;6.946;2022-09-16T06:33:53;14.60;99.90
4615;DHT22;2320;51.362;6.946;2022-09-16T06:36:19;14.70;99.90
4615;DHT22;2320;51.362;6.946;2022-09-16T06:38:45;14.60;99.90
4615;DHT22;2320;51.362;6.946;2022-09-16T06:41:12;14.70;99.90
4615;DHT22;2320;51.362;6.946;2022-09-16T06:43:38;14.80;99.90
4615;DHT22;2320;51.362;6.946;2022-09-16T06:46:04;14.90;99.90
4615;DHT22;2320;51.362;6.946;2022-09-16T06:48:33;15.00;99.90
4615;DHT22;2320;51.362;6.946;2022-09-16T06:50:59;14.90;99.90
4615;DHT22;2320;51.362;6.946;2022-09-16T06:53:25;14.90;99.90
4615;DHT22;2320;51.362;6.946;2022-09-16T06:55:51;15.00;99.90
4615;DHT22;2320;51.362;6.946;2022-09-16T06:58:16;15.00;99.90
4615;DHT22;2320;51.362;6.946;2022-09-16T07:00:41;15.10;99.90
4615;DHT22;2320;51.362;6.946;2022-09-16T07:03:07;15.20;99.90
4615;DHT22;2320;51.362;6.946;2022-09-16T07:05:32;15.30;99.90
4615;DHT22;2320;51.362;6.946;2022-09-16T07:07:58;15.50;99.90
4615;DHT22;2320;51.362;6.946;2022-09-16T07:10:24;15.60;99.90
4615;DHT22;2320;51.362;6.946;2022-09-16T07:12:50;15.80;99.90
4615;DHT22;2320;51.362;6.946;2022-09-16T07:15:15;16.20;99.90
4615;DHT22;2320;51.362;6.946;2022-09-16T07:17:41;16.40;99.90
4615;DHT22;2320;51.362;6.946;2022-09-16T07:20:06;16.60;99.90
4615;DHT22;2320;51.362;6.946;2022-09-16T07:22:34;16.90;99.90
4615;DHT22;2320;51.362;6.946;2022-09-16T07:24:59;17.00;99.90
4615;DHT22;2320;51.362;6.946;2022-09-16T07:27:25;17.70;99.90
4615;DHT22;2320;51.362;6.946;2022-09-16T07:29:50;18.10;99.90
4615;DHT22;2320;51.362;6.946;2022-09-16T07:32:18;18.40;99.90
4615;DHT22;2320;51.362;6.946;2022-09-16T07:34:43;18.30;99.90
4615;DHT22;2320;51.362;6.946;2022-09-16T07:37:09;18.50;99.90
4615;DHT22;2320;51.362;6.946;2022-09-16T07:39:34;18.60;99.90
4615;DHT22;2320;51.362;6.946;2022-09-16T07:41:59;19.00;99.90
4615;DHT22;2320;51.362;6.946;2022-09-16T07:44:28;19.90;99.90
4615;DHT22;2320;51.362;6.946;2022-09-16T07:46:53;20.80;99.90
4615;DHT22;2320;51.362;6.946;2022-09-16T07:49:19;21.70;99.90
4615;DHT22;2320;51.362;6.946;2022-09-16T07:51:44;23.00;99.90
4615;DHT22;2320;51.362;6.946;2022-09-16T07:54:11;23.90;99.90
4615;DHT22;2320;51.362;6.946;2022-09-16T07:56:37;24.70;99.90
4615;DHT22;2320;51.362;6.946;2022-09-16T07:59:03;25.70;99.90
4615;DHT22;2320;51.362;6.946;2022-09-16T08:01:29;26.50;99.90
4615;DHT22;2320;51.362;6.946;2022-09-16T08:03:55;26.60;99.90
4615;DHT22;2320;51.362;6.946;2022-09-16T08:06:23;25.90;99.90
4615;DHT22;2320;51.362;6.946;2022-09-16T08:08:52;25.40;99.90
4615;DHT22;2320;51.362;6.946;2022-09-16T08:11:18;24.90;99.90
4615;DHT22;2320;51.362;6.946;2022-09-16T08:13:44;24.50;99.90
4615;DHT22;2320;51.362;6.946;2022-09-16T08:16:12;23.70;99.90
4615;DHT22;2320;51.362;6.946;2022-09-16T08:18:38;23.90;99.90
4615;DHT22;2320;51.362;6.946;2022-09-16T08:21:04;25.10;99.90
4615;DHT22;2320;51.362;6.946;2022-09-16T08:23:30;25.90;99.90
4615;DHT22;2320;51.362;6.946;2022-09-16T08:25:56;26.70;99.90
4615;DHT22;2320;51.362;6.946;2022-09-16T08:28:22;27.00;99.90
4615;DHT22;2320;51.362;6.946;2022-09-16T08:30:48;25.90;99.90
4615;DHT22;2320;51.362;6.946;2022-09-16T08:33:14;25.20;99.90
4615;DHT22;2320;51.362;6.946;2022-09-16T08:35:39;24.50;99.90
4615;DHT22;2320;51.362;6.946;2022-09-16T08:38:04;24.30;99.90
4615;DHT22;2320;51.362;6.946;2022-09-16T08:40:32;23.80;99.90
4615;DHT22;2320;51.362;6.946;2022-09-16T08:43:13;23.10;99.90
4615;DHT22;2320;51.362;6.946;2022-09-16T08:45:42;22.60;99.90
4615;DHT22;2320;51.362;6.946;2022-09-16T08:50:49;22.90;99.90
4615;DHT22;2320;51.362;6.946;2022-09-16T08:53:18;24.70;99.90
4615;DHT22;2320;51.362;6.946;2022-09-16T08:55:46;25.00;99.90
4615;DHT22;2320;51.362;6.946;2022-09-16T08:58:20;24.20;99.90
4615;DHT22;2320;51.362;6.946;2022-09-16T09:00:57;23.60;99.90
4615;DHT22;2320;51.362;6.946;2022-09-16T09:03:36;23.00;99.90
4615;DHT22;2320;51.362;6.946;2022-09-16T09:06:04;22.60;99.90
4615;DHT22;2320;51.362;6.946;2022-09-16T09:16:01;24.90;99.90
4615;DHT22;2320;51.362;6.946;2022-09-16T09:18:39;25.50;99.90
4615;DHT22;2320;51.362;6.946;2022-09-16T09:21:15;26.40;99.90
4615;DHT22;2320;51.362;6.946;2022-09-16T09:23:50;26.40;99.90
4615;DHT22;2320;51.362;6.946;2022-09-16T09:26:20;25.30;99.90
4615;DHT22;2320;51.362;6.946;2022-09-16T09:28:52;24.70;99.90
4615;DHT22;2320;51.362;6.946;2022-09-16T09:34:34;23.30;99.90
4615;DHT22;2320;51.362;6.946;2022-09-16T09:36:59;22.70;99.90
4615;DHT22;2320;51.362;6.946;2022-09-16T09:42:02;21.40;99.90
4615;DHT22;2320;51.362;6.946;2022-09-16T09:47:10;21.10;99.90
4615;DHT22;2320;51.362;6.946;2022-09-16T09:49:41;21.90;99.90
4615;DHT22;2320;51.362;6.946;2022-09-16T09:52:16;22.60;99.90
4615;DHT22;2320;51.362;6.946;2022-09-16T09:54:47;22.40;99.90
4615;DHT22;2320;51.362;6.946;2022-09-16T09:57:32;22.30;99.90
4615;DHT22;2320;51.362;6.946;2022-09-16T10:00:03;22.00;99.90
4615;DHT22;2320;51.362;6.946;2022-09-16T10:02:33;21.30;99.90
4615;DHT22;2320;51.362;6.946;2022-09-16T10:05:00;20.70;99.90
4615;DHT22;2320;51.362;6.946;2022-09-16T10:07:26;20.60;99.90
4615;DHT22;2320;51.362;6.946;2022-09-16T10:10:04;20.40;99.90
4615;DHT22;2320;51.362;6.946;2022-09-16T10:12:36;20.80;99.90
4615;DHT22;2320;51.362;6.946;2022-09-16T10:15:02;21.10;99.90
4615;DHT22;2320;51.362;6.946;2022-09-16T10:17:29;21.10;99.90
4615;DHT22;2320;51.362;6.946;2022-09-16T10:19:59;21.20;99.90
4615;DHT22;2320;51.362;6.946;2022-09-16T10:22:32;21.90;99.90
4615;DHT22;2320;51.362;6.946;2022-09-16T10:25:02;22.10;99.90
4615;DHT22;2320;51.362;6.946;2022-09-16T10:27:29;21.90;99.90
4615;DHT22;2320;51.362;6.946;2022-09-16T10:30:17;21.80;99.90
4615;DHT22;2320;51.362;6.946;2022-09-16T10:33:05;21.80;99.90
4615;DHT22;2320;51.362;6.946;2022-09-16T10:35:30;21.50;99.90
4615;DHT22;2320;51.362;6.946;2022-09-16T10:40:27;21.60;99.90
4615;DHT22;2320;51.362;6.946;2022-09-16T10:42:53;21.60;99.90
4615;DHT22;2320;51.362;6.946;2022-09-16T10:45:32;21.40;99.90
4615;DHT22;2320;51.362;6.946;2022-09-16T10:47:59;20.90;99.90
4615;DHT22;2320;51.362;6.946;2022-09-16T10:50:26;20.50;99.90
4615;DHT22;2320;51.362;6.946;2022-09-16T10:52:51;20.10;99.90
4615;DHT22;2320;51.362;6.946;2022-09-16T10:55:28;19.80;99.90
4615;DHT22;2320;51.362;6.946;2022-09-16T10:58:04;19.50;99.90
4615;DHT22;2320;51.362;6.946;2022-09-16T11:00:30;19.50;99.90
4615;DHT22;2320;51.362;6.946;2022-09-16T11:03:17;19.80;99.90
4615;DHT22;2320;51.362;6.946;2022-09-16T11:08:33;19.90;99.90
4615;DHT22;2320;51.362;6.946;2022-09-16T11:11:12;19.70;99.90
4615;DHT22;2320;51.362;6.946;2022-09-16T11:18:35;19.00;99.90
4615;DHT22;2320;51.362;6.946;2022-09-16T11:26:17;18.80;99.90
4615;DHT22;2320;51.362;6.946;2022-09-16T11:28:49;18.90;99.90
4615;DHT22;2320;51.362;6.946;2022-09-16T11:36:18;19.90;99.90
4615;DHT22;2320;51.362;6.946;2022-09-16T11:38:58;19.80;99.90
4615;DHT22;2320;51.362;6.946;2022-09-16T11:51:35;16.70;99.90
4615;DHT22;2320;51.362;6.946;2022-09-16T11:56:45;16.10;99.90
4615;DHT22;2320;51.362;6.946;2022-09-16T11:59:14;16.00;99.90
4615;DHT22;2320;51.362;6.946;2022-09-16T12:01:43;16.10;99.90
4615;DHT22;2320;51.362;6.946;2022-09-16T12:04:24;16.10;99.90
4615;DHT22;2320;51.362;6.946;2022-09-16T12:12:16;16.10;99.90
4615;DHT22;2320;51.362;6.946;2022-09-16T12:14:50;16.30;99.90
4615;DHT22;2320;51.362;6.946;2022-09-16T12:17:19;16.50;99.90
4615;DHT22;2320;51.362;6.946;2022-09-16T12:19:46;16.70;99.90
4615;DHT22;2320;51.362;6.946;2022-09-16T12:22:25;16.90;99.90
4615;DHT22;2320;51.362;6.946;2022-09-16T12:25:02;16.90;99.90
4615;DHT22;2320;51.362;6.946;2022-09-16T12:27:37;17.10;99.90
4615;DHT22;2320;51.362;6.946;2022-09-16T12:30:12;17.10;99.90
4615;DHT22;2320;51.362;6.946;2022-09-16T12:35:17;17.10;99.90
4615;DHT22;2320;51.362;6.946;2022-09-16T12:37:46;17.20;99.90
4615;DHT22;2320;51.362;6.946;2022-09-16T12:40:17;17.20;99.90
4615;DHT22;2320;51.362;6.946;2022-09-16T12:45:37;17.40;99.90
4615;DHT22;2320;51.362;6.946;2022-09-16T12:56:13;17.00;99.90
4615;DHT22;2320;51.362;6.946;2022-09-16T13:01:17;16.70;99.90
4615;DHT22;2320;51.362;6.946;2022-09-16T13:03:46;16.70;99.90
4615;DHT22;2320;51.362;6.946;2022-09-16T13:06:18;16.60;99.90
4615;DHT22;2320;51.362;6.946;2022-09-16T13:08:44;16.40;99.90
4615;DHT22;2320;51.362;6.946;2022-09-16T13:11:17;16.50;99.90
4615;DHT22;2320;51.362;6.946;2022-09-16T13:13:45;16.60;99.90
4615;DHT22;2320;51.362;6.946;2022-09-16T13:16:11;16.70;99.90
4615;DHT22;2320;51.362;6.946;2022-09-16T13:18:40;16.80;99.90
4615;DHT22;2320;51.362;6.946;2022-09-16T13:21:16;16.70;99.90
4615;DHT22;2320;51.362;6.946;2022-09-16T13:23:46;16.70;99.90
4615;DHT22;2320;51.362;6.946;2022-09-16T13:26:12;16.90;99.90
4615;DHT22;2320;51.362;6.946;2022-09-16T13:28:40;17.10;99.90
4615;DHT22;2320;51.362;6.946;2022-09-16T13:31:14;17.30;99.90
4615;DHT22;2320;51.362;6.946;2022-09-16T13:33:42;17.40;99.90
4615;DHT22;2320;51.362;6.946;2022-09-16T13:36:12;17.60;99.90
4615;DHT22;2320;51.362;6.946;2022-09-16T13:38:39;17.60;99.90
4615;DHT22;2320;51.362;6.946;2022-09-16T13:41:05;17.70;99.90
4615;DHT22;2320;51.362;6.946;2022-09-16T13:43:34;17.80;99.90
4615;DHT22;2320;51.362;6.946;2022-09-16T13:46:05;17.90;99.90
4615;DHT22;2320;51.362;6.946;2022-09-16T13:48:34;17.90;99.90
4615;DHT22;2320;51.362;6.946;2022-09-16T13:51:00;17.80;99.90
4615;DHT22;2320;51.362;6.946;2022-09-16T13:53:31;17.60;99.90
4615;DHT22;2320;51.362;6.946;2022-09-16T13:58:35;17.10;99.90
4615;DHT22;2320;51.362;6.946;2022-09-16T14:01:10;16.80;99.90
4615;DHT22;2320;51.362;6.946;2022-09-16T14:03:44;16.70;99.90
4615;DHT22;2320;51.362;6.946;2022-09-16T14:06:18;16.70;99.90
4615;DHT22;2320;51.362;6.946;2022-09-16T14:11:21;17.10;99.90
4615;DHT22;2320;51.362;6.946;2022-09-16T14:13:49;17.10;99.90
4615;DHT22;2320;51.362;6.946;2022-09-16T14:16:16;17.30;99.90
4615;DHT22;2320;51.362;6.946;2022-09-16T14:18:44;17.30;99.90
4615;DHT22;2320;51.362;6.946;2022-09-16T14:21:19;17.30;99.90
4615;DHT22;2320;51.362;6.946;2022-09-16T14:23:45;17.10;99.90
4615;DHT22;2320;51.362;6.946;2022-09-16T14:26:18;17.20;99.90
4615;DHT22;2320;51.362;6.946;2022-09-16T14:28:43;17.00;99.90
4615;DHT22;2320;51.362;6.946;2022-09-16T14:31:12;17.10;99.90
4615;DHT22;2320;51.362;6.946;2022-09-16T14:33:52;17.20;99.90
4615;DHT22;2320;51.362;6.946;2022-09-16T14:36:27;17.10;99.90
4615;DHT22;2320;51.362;6.946;2022-09-16T14:39:08;17.10;99.90
4615;DHT22;2320;51.362;6.946;2022-09-16T14:41:38;17.10;99.90
4615;DHT22;2320;51.362;6.946;2022-09-16T14:44:09;17.10;99.90
4615;DHT22;2320;51.362;6.946;2022-09-16T14:46:43;17.10;99.90
4615;DHT22;2320;51.362;6.946;2022-09-16T14:49:12;16.90;99.90
4615;DHT22;2320;51.362;6.946;2022-09-16T14:51:39;17.00;99.90
4615;DHT22;2320;51.362;6.946;2022-09-16T14:54:14;17.00;99.90
4615;DHT22;2320;51.362;6.946;2022-09-16T14:56:40;16.90;99.90
4615;DHT22;2320;51.362;6.946;2022-09-16T14:59:07;16.80;99.90
4615;DHT22;2320;51.362;6.946;2022-09-16T15:01:34;16.70;99.90
4615;DHT22;2320;51.362;6.946;2022-09-16T15:04:13;16.60;99.90
4615;DHT22;2320;51.362;6.946;2022-09-16T15:06:41;16.60;99.90
4615;DHT22;2320;51.362;6.946;2022-09-16T15:11:54;16.60;99.90
4615;DHT22;2320;51.362;6.946;2022-09-16T15:14:20;16.70;99.90
4615;DHT22;2320;51.362;6.946;2022-09-16T15:16:47;16.80;99.90
4615;DHT22;2320;51.362;6.946;2022-09-16T15:19:24;16.80;99.90
4615;DHT22;2320;51.362;6.946;2022-09-16T15:21:51;16.70;99.90
4615;DHT22;2320;51.362;6.946;2022-09-16T15:24:19;16.60;99.90
4615;DHT22;2320;51.362;6.946;2022-09-16T15:26:45;16.60;99.90
4615;DHT22;2320;51.362;6.946;2022-09-16T15:31:42;16.50;99.90
4615;DHT22;2320;51.362;6.946;2022-09-16T15:36:44;16.50;99.90
4615;DHT22;2320;51.362;6.946;2022-09-16T15:44:48;16.70;99.90
4615;DHT22;2320;51.362;6.946;2022-09-16T15:49:58;16.50;99.90
4615;DHT22;2320;51.362;6.946;2022-09-16T15:52:24;16.50;99.90
4615;DHT22;2320;51.362;6.946;2022-09-16T15:55:00;16.50;99.90
4615;DHT22;2320;51.362;6.946;2022-09-16T16:04:43;16.30;99.90
4615;DHT22;2320;51.362;6.946;2022-09-16T16:07:09;16.40;99.90
4615;DHT22;2320;51.362;6.946;2022-09-16T16:09:38;16.40;99.90
4615;DHT22;2320;51.362;6.946;2022-09-16T16:12:05;16.30;99.90
4615;DHT22;2320;51.362;6.946;2022-09-16T16:14:35;16.30;99.90
4615;DHT22;2320;51.362;6.946;2022-09-16T16:17:01;16.30;99.90
4615;DHT22;2320;51.362;6.946;2022-09-16T16:19:27;16.20;99.90
4615;DHT22;2320;51.362;6.946;2022-09-16T16:21:53;16.20;99.90
4615;DHT22;2320;51.362;6.946;2022-09-16T16:24:19;16.20;99.90
4615;DHT22;2320;51.362;6.946;2022-09-16T16:26:44;16.20;99.90
4615;DHT22;2320;51.362;6.946;2022-09-16T16:29:09;16.10;99.90
4615;DHT22;2320;51.362;6.946;2022-09-16T16:31:35;16.10;99.90
4615;DHT22;2320;51.362;6.946;2022-09-16T16:34:03;16.10;99.90
4615;DHT22;2320;51.362;6.946;2022-09-16T16:36:29;16.00;99.90
4615;DHT22;2320;51.362;6.946;2022-09-16T16:38:54;15.90;99.90
4615;DHT22;2320;51.362;6.946;2022-09-16T16:41:20;15.90;99.90
4615;DHT22;2320;51.362;6.946;2022-09-16T16:43:46;15.80;99.90
4615;DHT22;2320;51.362;6.946;2022-09-16T16:46:11;15.70;99.90
4615;DHT22;2320;51.362;6.946;2022-09-16T16:48:37;15.70;99.90
4615;DHT22;2320;51.362;6.946;2022-09-16T16:51:08;15.50;99.90
4615;DHT22;2320;51.362;6.946;2022-09-16T16:53:34;15.50;99.90
4615;DHT22;2320;51.362;6.946;2022-09-16T16:58:29;15.50;99.90
4615;DHT22;2320;51.362;6.946;2022-09-16T17:00:55;15.50;99.90
4615;DHT22;2320;51.362;6.946;2022-09-16T17:03:21;15.60;99.90
4615;DHT22;2320;51.362;6.946;2022-09-16T17:05:46;15.70;99.90
4615;DHT22;2320;51.362;6.946;2022-09-16T17:08:12;15.60;99.90
4615;DHT22;2320;51.362;6.946;2022-09-16T17:10:37;15.60;99.90
4615;DHT22;2320;51.362;6.946;2022-09-16T17:13:05;15.70;99.90
4615;DHT22;2320;51.362;6.946;2022-09-16T17:15:30;15.60;99.90
4615;DHT22;2320;51.362;6.946;2022-09-16T17:17:56;15.50;99.90
4615;DHT22;2320;51.362;6.946;2022-09-16T17:20:21;15.40;99.90
4615;DHT22;2320;51.362;6.946;2022-09-16T17:22:47;15.30;99.90
4615;DHT22;2320;51.362;6.946;2022-09-16T17:25:13;15.20;99.90
4615;DHT22;2320;51.362;6.946;2022-09-16T17:27:39;15.10;99.90
4615;DHT22;2320;51.362;6.946;2022-09-16T17:30:04;15.00;99.90
4615;DHT22;2320;51.362;6.946;2022-09-16T17:32:30;15.00;99.90
4615;DHT22;2320;51.362;6.946;2022-09-16T17:34:55;14.80;99.90
4615;DHT22;2320;51.362;6.946;2022-09-16T17:37:21;14.80;99.90
4615;DHT22;2320;51.362;6.946;2022-09-16T17:39:46;14.70;99.90
4615;DHT22;2320;51.362;6.946;2022-09-16T17:42:13;14.70;99.90
4615;DHT22;2320;51.362;6.946;2022-09-16T17:44:38;14.70;99.90
4615;DHT22;2320;51.362;6.946;2022-09-16T17:47:04;14.60;99.90
4615;DHT22;2320;51.362;6.946;2022-09-16T17:49:29;14.60;99.90
4615;DHT22;2320;51.362;6.946;2022-09-16T17:51:55;14.50;99.90
4615;DHT22;2320;51.362;6.946;2022-09-16T17:54:20;14.50;99.90
4615;DHT22;2320;51.362;6.946;2022-09-16T17:56:46;14.40;99.90
4615;DHT22;2320;51.362;6.946;2022-09-16T17:59:14;14.30;99.90
4615;DHT22;2320;51.362;6.946;2022-09-16T18:01:39;14.20;99.90
4615;DHT22;2320;51.362;6.946;2022-09-16T18:04:05;14.20;99.90
4615;DHT22;2320;51.362;6.946;2022-09-16T18:06:32;14.00;99.90
4615;DHT22;2320;51.362;6.946;2022-09-16T18:09:00;14.10;99.90
4615;DHT22;2320;51.362;6.946;2022-09-16T18:11:26;14.00;99.90
4615;DHT22;2320;51.362;6.946;2022-09-16T18:13:56;14.00;99.90
4615;DHT22;2320;51.362;6.946;2022-09-16T18:16:22;13.90;99.90
4615;DHT22;2320;51.362;6.946;2022-09-16T18:18:49;13.90;99.90
4615;DHT22;2320;51.362;6.946;2022-09-16T18:21:15;13.90;99.90
4615;DHT22;2320;51.362;6.946;2022-09-16T18:23:42;13.80;99.90
4615;DHT22;2320;51.362;6.946;2022-09-16T18:26:08;13.80;99.90
4615;DHT22;2320;51.362;6.946;2022-09-16T18:28:37;13.80;99.90
4615;DHT22;2320;51.362;6.946;2022-09-16T18:31:04;13.80;99.90
4615;DHT22;2320;51.362;6.946;2022-09-16T18:33:30;13.70;99.90